createdAt,value
2023-03-06T02:06:15.102Z,56.83
2023-03-06T02:07:15.127Z,59.15
2023-03-06T02:09:15.205Z,55.91
2023-03-06T02:10:15.193Z,57.65
2023-03-06T02:11:15.248Z,55.62
2023-03-06T02:12:15.163Z,59.74
2023-03-06T02:13:15.173Z,59.45
2023-03-06T02:14:15.241Z,55.99
2023-03-06T02:15:15.261Z,58.33
2023-03-06T02:16:15.253Z,55.79
2023-03-06T02:17:15.274Z,58.30
2023-03-06T02:18:15.299Z,55.78
2023-03-06T02:19:15.334Z,60.32
2023-03-06T02:20:15.427Z,58.66
2023-03-06T02:21:15.441Z,59.70
2023-03-06T02:22:15.513Z,59.03
2023-03-06T02:23:15.576Z,59.54
2023-03-06T02:24:15.616Z,61.26
2023-03-06T02:25:15.727Z,59.72
2023-03-06T02:26:15.770Z,60.28
2023-03-06T02:27:15.802Z,58.83
2023-03-06T02:28:15.897Z,59.87
2023-03-06T02:29:15.911Z,60.95
2023-03-06T02:30:15.960Z,58.77
2023-03-06T02:31:16.082Z,61.79
2023-03-06T02:32:16.115Z,58.72
2023-03-06T02:33:16.115Z,58.14
2023-03-06T02:34:16.166Z,60.63
2023-03-06T02:35:16.180Z,60.98
2023-03-06T02:36:16.253Z,59.45
2023-03-06T02:37:16.275Z,62.53
2023-03-06T02:38:16.296Z,60.58
2023-03-06T02:39:16.356Z,62.41
2023-03-06T02:40:16.386Z,62.02
2023-03-06T02:41:16.418Z,59.49
2023-03-06T02:42:16.423Z,60.37
2023-03-06T02:43:16.476Z,62.76
2023-03-06T02:44:16.470Z,62.92
2023-03-06T02:45:16.468Z,62.26
2023-03-06T02:46:16.521Z,61.85
2023-03-06T02:47:16.551Z,62.60
2023-03-06T02:48:16.573Z,61.43
2023-03-06T02:49:16.539Z,60.70
2023-03-06T02:50:16.579Z,62.11
2023-03-06T02:51:16.654Z,63.80
2023-03-06T02:52:16.661Z,62.03
2023-03-06T02:53:16.697Z,62.11
2023-03-06T02:54:16.725Z,63.18
2023-03-06T02:55:16.727Z,65.05
2023-03-06T02:56:16.712Z,63.63
2023-03-06T02:58:16.760Z,63.54
2023-03-06T02:59:16.768Z,62.32
2023-03-06T03:00:16.764Z,64.79
2023-03-06T03:01:16.817Z,63.93
2023-03-06T03:02:16.772Z,64.48
2023-03-06T03:03:16.837Z,63.86
2023-03-06T03:42:17.894Z,64.86
2023-03-06T03:43:18.003Z,64.45
2023-03-06T03:44:18.068Z,62.72
2023-03-06T03:45:18.124Z,62.22
2023-03-06T03:46:18.119Z,63.24
2023-03-06T03:47:18.145Z,63.05
2023-03-06T03:48:18.212Z,61.92
2023-03-06T03:49:18.252Z,65.81
2023-03-06T03:50:18.295Z,64.38
2023-03-06T03:51:18.310Z,65.15
2023-03-06T03:52:18.361Z,63.99
2023-03-06T03:53:18.447Z,63.67
2023-03-06T03:54:18.470Z,63.05
2023-03-06T03:55:18.541Z,63.89
2023-03-06T03:56:18.596Z,62.77
2023-03-06T03:57:18.713Z,63.44
2023-03-06T03:58:18.729Z,63.32
2023-03-06T03:59:18.765Z,63.63
2023-03-06T04:00:18.810Z,65.83
2023-03-06T04:01:18.873Z,63.59
2023-03-06T04:02:18.983Z,63.74
2023-03-06T04:03:19.069Z,60.35
2023-03-06T04:04:19.045Z,60.48
2023-03-06T04:05:19.206Z,63.26
2023-03-06T04:06:19.169Z,62.10
2023-03-06T04:07:19.236Z,60.00
2023-03-06T04:08:19.302Z,62.90
2023-03-06T04:09:19.371Z,63.02
2023-03-06T04:10:19.458Z,63.40
2023-03-06T04:11:19.476Z,60.90
2023-03-06T04:12:19.544Z,61.11
2023-03-06T04:13:19.638Z,62.07
2023-03-06T04:14:19.677Z,61.91
2023-03-06T04:15:19.719Z,61.55
2023-03-06T04:16:19.830Z,63.30
2023-03-06T04:17:19.823Z,63.48
2023-03-06T04:18:19.896Z,62.20
2023-03-06T04:19:19.936Z,60.43
2023-03-06T04:20:20.010Z,62.13
2023-03-06T04:21:20.090Z,62.13
2023-03-06T04:22:20.165Z,60.97
2023-03-06T04:23:20.186Z,61.83
2023-03-06T05:03:21.511Z,55.86
2023-03-06T05:10:21.828Z,54.17
2023-03-06T05:11:21.809Z,54.03
2023-03-06T05:12:21.828Z,53.69
2023-03-06T05:13:21.847Z,53.63
2023-03-06T05:14:21.928Z,53.91
2023-03-06T05:15:22.016Z,54.04
2023-03-06T05:25:22.495Z,53.13
2023-03-06T05:26:22.505Z,53.29
2023-03-06T05:27:22.524Z,53.37
2023-03-06T05:28:22.550Z,54.77
2023-03-06T05:29:22.529Z,53.90
2023-03-06T05:30:22.522Z,52.23
2023-03-06T05:31:22.542Z,52.29
2023-03-06T05:32:22.563Z,53.83
2023-03-06T05:33:22.589Z,52.15
2023-03-06T05:34:22.693Z,52.68
2023-03-06T05:35:22.843Z,54.68
2023-03-06T05:36:22.897Z,53.77
2023-03-06T05:37:22.986Z,53.83
2023-03-06T05:38:23.019Z,53.40
2023-03-06T05:39:22.984Z,52.17
2023-03-06T05:40:23.034Z,52.11
2023-03-06T05:41:22.973Z,52.57
2023-03-06T05:42:22.970Z,51.77
2023-03-06T05:43:23.082Z,52.02
2023-03-06T05:44:23.116Z,50.36
2023-03-06T05:45:23.219Z,54.34
2023-03-06T05:46:23.337Z,53.73
2023-03-06T05:47:23.318Z,51.93
2023-03-06T05:48:23.304Z,53.28
2023-03-06T05:49:23.293Z,52.19
2023-03-06T05:50:23.293Z,51.49
2023-03-06T05:51:23.300Z,52.94
2023-03-06T05:52:23.408Z,52.54
2023-03-06T05:53:23.457Z,53.49
2023-03-06T05:54:23.470Z,49.76
2023-03-06T05:55:23.449Z,50.90
2023-03-06T05:56:23.423Z,54.37
2023-03-06T05:57:23.436Z,51.98
2023-03-06T05:58:23.451Z,51.81
2023-03-06T05:59:23.489Z,50.58
2023-03-06T06:00:30.867Z,52.00
2023-03-06T06:02:23.610Z,52.47
2023-03-06T06:03:23.598Z,52.21
2023-03-06T06:04:23.574Z,51.59
2023-03-06T06:05:23.542Z,53.03
2023-03-06T06:06:23.582Z,51.10
2023-03-06T06:07:23.597Z,50.68
2023-03-06T06:08:23.551Z,48.87
2023-03-06T06:09:23.607Z,51.93
2023-03-06T06:10:23.578Z,49.36
2023-03-06T06:11:23.601Z,50.75
2023-03-06T06:12:23.579Z,49.59
2023-03-06T06:13:23.603Z,51.31
2023-03-06T06:14:23.539Z,50.67
2023-03-06T06:15:23.548Z,50.76
2023-03-06T06:16:23.523Z,47.72
2023-03-06T06:17:23.499Z,49.49
2023-03-06T06:18:23.583Z,48.80
2023-03-06T06:19:23.517Z,50.20
2023-03-06T06:20:23.482Z,49.79
2023-03-06T06:21:23.479Z,49.15
2023-03-06T06:22:23.449Z,50.47
2023-03-06T06:23:23.416Z,48.11
2023-03-06T06:24:23.443Z,50.42
2023-03-06T06:25:23.402Z,50.76
2023-03-06T06:26:23.412Z,50.38
2023-03-06T06:27:23.423Z,52.79
2023-03-06T06:28:23.390Z,52.59
2023-03-06T06:29:23.403Z,55.12
2023-03-06T06:30:23.393Z,56.95
2023-03-06T06:31:23.440Z,55.06
2023-03-06T06:32:23.433Z,58.50
2023-03-06T06:33:23.364Z,61.26
2023-03-06T06:34:23.376Z,61.24
2023-03-06T06:35:23.440Z,55.03
2023-03-06T06:36:23.362Z,56.18
2023-03-06T06:37:23.384Z,45.48
2023-03-06T06:38:23.340Z,40.69
2023-03-06T06:39:23.344Z,47.42
2023-03-06T06:40:23.367Z,29.51
2023-03-06T06:42:33.318Z,26.21
2023-03-06T06:43:24.311Z,26.29
2023-03-06T06:44:23.333Z,18.14
2023-03-06T06:45:23.316Z,6.09
2023-03-06T06:47:19.256Z,12.00
2023-03-06T06:47:25.649Z,26.37
2023-03-06T06:48:23.542Z,10.61
2023-03-06T06:49:23.605Z,0.00
2023-03-06T06:50:23.584Z,0.00
2023-03-06T06:51:23.595Z,1.50
2023-03-06T06:52:23.666Z,0.00
2023-03-06T06:53:23.619Z,25.00
2023-03-06T06:54:23.684Z,26.00
2023-03-06T06:55:23.728Z,27.41
2023-03-06T06:56:23.894Z,27.21
2023-03-06T06:57:23.848Z,28.59
2023-03-06T06:58:23.851Z,31.92
2023-03-06T06:59:23.999Z,33.28
2023-03-06T07:00:24.017Z,36.31
2023-03-06T07:01:24.036Z,38.52
2023-03-06T07:02:23.978Z,42.60
2023-03-06T07:03:23.979Z,45.99
2023-03-06T07:04:24.049Z,48.45
2023-03-06T07:05:24.067Z,50.93
2023-03-06T07:06:24.015Z,52.93
2023-03-06T07:07:25.492Z,55.81
2023-03-06T07:08:24.061Z,60.16
2023-03-06T07:09:24.188Z,62.43
2023-03-06T07:10:24.247Z,67.28
2023-03-06T07:11:24.405Z,68.05
2023-03-06T07:12:24.284Z,71.13
2023-03-06T07:13:24.256Z,74.03
2023-03-06T07:14:24.298Z,75.59
2023-03-06T07:15:24.327Z,75.40
2023-03-06T07:16:24.424Z,80.39
2023-03-06T07:17:24.551Z,82.70
2023-03-06T07:18:24.544Z,83.87
2023-03-06T07:19:24.584Z,85.55
2023-03-06T07:20:24.699Z,87.27
2023-03-06T07:21:24.726Z,88.13
2023-03-06T07:22:24.798Z,91.01
2023-03-06T07:23:24.803Z,89.35
2023-03-06T07:24:24.853Z,91.15
2023-03-06T07:25:24.903Z,93.29
2023-03-06T07:26:25.024Z,95.83
2023-03-06T07:27:25.120Z,97.57
2023-03-06T07:28:25.145Z,99.06
2023-03-06T07:29:25.190Z,97.48
2023-03-06T07:30:25.287Z,102.51
2023-03-06T07:31:25.384Z,103.28
2023-03-06T07:32:25.572Z,109.38
2023-03-06T07:33:25.481Z,106.91
2023-03-06T07:34:25.490Z,108.84
2023-03-06T07:35:25.547Z,109.36
2023-03-06T07:36:25.550Z,106.87
2023-03-06T07:37:25.940Z,119.35
2023-03-06T07:38:25.666Z,119.21
2023-03-06T07:39:26.465Z,120.14
2023-03-06T07:40:25.787Z,123.50
2023-03-06T07:41:25.942Z,118.28
2023-03-06T07:42:25.845Z,80.37
2023-03-06T07:43:25.915Z,78.69
2023-03-06T07:44:25.936Z,79.28
2023-03-06T07:45:25.898Z,67.09
2023-03-06T07:46:26.001Z,78.82
2023-03-06T07:47:26.413Z,62.33
2023-03-06T07:48:26.043Z,55.34
2023-03-06T07:49:26.126Z,34.97
2023-03-06T07:50:26.224Z,28.27
2023-03-06T07:51:26.171Z,27.37
2023-03-06T07:52:26.397Z,25.20
2023-03-06T07:53:26.153Z,23.58
2023-03-06T07:54:26.149Z,30.01
2023-03-06T07:55:26.147Z,28.73
2023-03-06T07:56:26.217Z,25.00
2023-03-06T07:57:26.422Z,26.44
2023-03-06T07:58:26.227Z,25.00
2023-03-06T07:59:26.286Z,25.00
2023-03-06T08:00:26.446Z,27.80
2023-03-06T08:01:26.286Z,25.00
2023-03-06T08:02:26.397Z,25.00
2023-03-06T08:03:26.403Z,25.73
2023-03-06T08:04:28.327Z,29.09
2023-03-06T08:05:26.520Z,26.21
2023-03-06T08:06:26.602Z,25.00
2023-03-06T08:07:26.593Z,25.83
2023-03-06T08:08:26.649Z,25.00
2023-03-06T08:09:26.658Z,24.72
2023-03-06T08:10:26.765Z,25.14
2023-03-06T08:11:26.729Z,36.43
2023-03-06T08:12:26.936Z,34.53
2023-03-06T08:13:26.837Z,29.66
2023-03-06T08:17:27.429Z,31.22
2023-03-06T08:18:27.018Z,31.08
2023-03-06T08:19:27.890Z,31.00
2023-03-06T08:20:27.148Z,27.61
2023-03-06T08:21:27.153Z,26.99
2023-03-06T08:22:27.276Z,26.79
2023-03-06T08:23:27.232Z,29.57
2023-03-06T08:24:27.267Z,31.45
2023-03-06T08:25:27.316Z,30.50
2023-03-06T08:26:27.424Z,29.81
2023-03-06T08:28:27.471Z,29.52
2023-03-06T08:29:27.475Z,30.95
2023-03-06T08:30:27.511Z,33.28
2023-03-06T08:31:27.640Z,37.36
2023-03-06T08:32:28.091Z,41.56
2023-03-06T08:33:27.692Z,37.09
2023-03-06T08:34:27.702Z,31.96
2023-03-06T08:35:27.842Z,29.78
2023-03-06T08:36:27.805Z,28.77
2023-03-06T08:37:27.971Z,28.21
2023-03-06T08:38:27.882Z,29.21
2023-03-06T08:39:27.945Z,32.84
2023-03-06T08:40:27.970Z,34.85
2023-03-06T08:41:28.016Z,36.24
2023-03-06T08:42:28.407Z,45.72
2023-03-06T08:43:28.083Z,64.20
2023-03-06T08:44:28.128Z,64.85
2023-03-06T08:45:28.213Z,65.35
2023-03-06T08:46:28.206Z,70.54
2023-03-06T08:47:28.404Z,72.48
2023-03-06T08:48:28.257Z,76.55
2023-03-06T08:49:28.255Z,82.86
2023-03-06T08:50:28.268Z,83.00
2023-03-06T08:51:28.280Z,84.19
2023-03-06T08:52:28.450Z,86.31
2023-03-06T08:53:42.237Z,88.44
2023-03-06T08:55:28.270Z,89.28
2023-03-06T08:56:28.277Z,91.68
2023-03-06T08:57:28.254Z,93.45
2023-03-06T08:58:28.272Z,97.07
2023-03-06T08:59:28.231Z,95.86
2023-03-06T09:00:28.282Z,99.43
2023-03-06T09:02:28.224Z,101.50
2023-03-06T09:03:28.264Z,99.56
2023-03-06T09:04:28.314Z,100.18
2023-03-06T09:05:28.369Z,102.34
2023-03-06T09:06:28.424Z,103.15
2023-03-06T09:07:28.481Z,105.85
2023-03-06T09:08:28.535Z,104.56
2023-03-06T09:09:28.558Z,99.50
2023-03-06T09:10:28.655Z,102.49
2023-03-06T09:11:28.729Z,107.01
2023-03-06T09:12:30.795Z,103.15
2023-03-06T09:13:28.938Z,98.91
2023-03-06T09:14:28.757Z,97.17
2023-03-06T09:15:28.753Z,98.06
2023-03-06T09:16:28.731Z,100.70
2023-03-06T09:17:28.789Z,98.03
2023-03-06T09:18:28.917Z,95.11
2023-03-06T09:19:28.686Z,98.53
2023-03-06T09:20:28.692Z,82.44
2023-03-06T09:21:28.730Z,92.01
2023-03-06T09:22:28.710Z,95.98
2023-03-06T09:23:28.903Z,94.64
2023-03-06T09:24:28.770Z,91.39
2023-03-06T09:25:28.672Z,95.91
2023-03-06T09:26:43.411Z,93.98
2023-03-06T09:27:29.643Z,94.05
2023-03-06T09:28:28.704Z,94.24
2023-03-06T09:29:28.654Z,75.91
2023-03-06T09:30:28.652Z,78.45
2023-03-06T09:31:28.603Z,90.13
2023-03-06T09:32:28.713Z,86.87
2023-03-06T09:33:28.920Z,83.25
2023-03-06T09:34:28.619Z,86.48
2023-03-06T09:35:29.703Z,93.29
2023-03-06T09:36:28.600Z,94.75
2023-03-06T09:37:28.601Z,92.78
2023-03-06T09:38:29.071Z,92.30
2023-03-06T09:39:29.064Z,93.26
2023-03-06T09:40:28.718Z,95.13
2023-03-06T09:41:28.795Z,91.45
2023-03-06T09:42:28.799Z,91.84
2023-03-06T09:43:28.886Z,97.55
2023-03-06T09:44:28.964Z,95.27
2023-03-06T09:45:28.960Z,93.09
2023-03-06T09:46:29.076Z,92.86
2023-03-06T09:47:29.072Z,92.04
2023-03-06T09:48:29.126Z,94.76
2023-03-06T09:49:29.143Z,94.42
2023-03-06T09:50:29.216Z,96.36
2023-03-06T09:51:29.211Z,92.05
2023-03-06T09:52:29.275Z,80.94
2023-03-06T09:53:29.314Z,86.20
2023-03-06T09:54:29.331Z,91.29
2023-03-06T09:55:29.405Z,93.02
2023-03-06T09:56:29.390Z,96.59
2023-03-06T09:57:29.426Z,98.85
2023-03-06T09:58:29.498Z,100.22
2023-03-06T09:59:29.463Z,101.55
2023-03-06T10:00:29.522Z,103.90
2023-03-06T10:01:29.528Z,106.07
2023-03-06T10:02:29.650Z,108.61
2023-03-06T10:03:29.698Z,113.07
2023-03-06T10:04:29.698Z,114.27
2023-03-06T10:05:29.769Z,116.27
2023-03-06T10:06:29.788Z,119.86
2023-03-06T10:07:29.721Z,123.26
2023-03-06T10:08:29.744Z,124.53
2023-03-06T10:09:29.744Z,129.13
2023-03-06T10:10:29.816Z,132.92
2023-03-06T10:11:29.806Z,136.42
2023-03-06T10:12:29.799Z,136.55
2023-03-06T10:13:29.877Z,139.09
2023-03-06T10:14:29.871Z,142.62
2023-03-06T10:15:29.938Z,144.46
2023-03-06T10:16:29.835Z,144.94
2023-03-06T10:17:29.860Z,150.05
2023-03-06T10:18:30.223Z,148.84
2023-03-06T10:19:30.035Z,152.05
2023-03-06T10:20:29.968Z,152.61
2023-03-06T10:21:30.014Z,153.64
2023-03-06T10:22:30.069Z,153.90
2023-03-06T10:23:30.118Z,159.72
2023-03-06T10:24:30.198Z,159.02
2023-03-06T10:25:30.232Z,161.99
2023-03-06T10:26:30.464Z,164.94
2023-03-06T10:27:30.358Z,165.55
2023-03-06T10:28:30.461Z,166.81
2023-03-06T10:29:30.547Z,167.26
2023-03-06T10:30:30.547Z,167.64
2023-03-06T10:31:30.631Z,171.41
2023-03-06T10:32:42.700Z,173.39
2023-03-06T10:33:31.653Z,173.57
2023-03-06T10:34:30.639Z,173.73
2023-03-06T10:35:31.015Z,174.90
2023-03-06T10:36:30.654Z,175.72
2023-03-06T10:37:32.533Z,178.05
2023-03-06T10:38:30.604Z,177.71
2023-03-06T10:39:30.599Z,178.82
2023-03-06T10:40:30.616Z,177.92
2023-03-06T10:41:30.641Z,179.36
2023-03-06T10:42:30.693Z,181.05
2023-03-06T10:43:30.858Z,182.00
2023-03-06T10:44:30.795Z,181.82
2023-03-06T10:45:40.579Z,178.77
2023-03-06T10:46:31.912Z,179.06
2023-03-06T10:47:30.865Z,180.36
2023-03-06T10:48:30.871Z,211.44
2023-03-06T10:49:30.990Z,234.04
2023-03-06T10:50:31.273Z,270.88
2023-03-06T10:51:30.816Z,250.00
2023-03-06T10:52:30.823Z,249.60
2023-03-06T10:53:30.808Z,250.00
2023-03-06T10:54:30.977Z,243.28
2023-03-06T10:55:30.825Z,245.96
2023-03-06T10:56:30.893Z,245.16
2023-03-06T10:57:30.955Z,247.49
2023-03-06T10:58:31.013Z,249.99
2023-03-06T10:59:31.017Z,249.43
2023-03-06T11:00:31.119Z,247.27
2023-03-06T11:01:31.100Z,245.82
2023-03-06T11:02:31.105Z,246.28
2023-03-06T11:03:31.193Z,247.82
2023-03-06T11:04:31.262Z,241.75
2023-03-06T11:06:31.235Z,249.04
2023-03-06T11:07:31.283Z,245.80
2023-03-06T11:08:31.288Z,246.45
2023-03-06T11:09:31.324Z,236.65
2023-03-06T11:10:31.404Z,240.67
2023-03-06T11:11:37.518Z,234.96
2023-03-06T11:12:32.393Z,235.00
2023-03-06T11:13:31.390Z,235.57
2023-03-06T11:14:31.591Z,237.67
2023-03-06T11:15:31.361Z,240.73
2023-03-06T11:16:31.454Z,243.39
2023-03-06T11:17:31.385Z,240.17
2023-03-06T11:18:31.435Z,235.50
2023-03-06T11:19:31.320Z,231.96
2023-03-06T11:20:44.652Z,241.01
2023-03-06T11:21:32.345Z,241.06
2023-03-06T11:22:31.315Z,234.83
2023-03-06T11:23:31.330Z,232.77
2023-03-06T11:24:31.463Z,226.92
2023-03-06T11:25:31.288Z,236.14
2023-03-06T11:26:31.445Z,235.81
2023-03-06T11:27:31.380Z,231.58
2023-03-06T11:28:31.297Z,226.30
2023-03-06T11:29:33.060Z,228.28
2023-03-06T11:30:31.258Z,236.35
2023-03-06T11:31:31.557Z,233.55
2023-03-06T11:32:31.282Z,237.51
2023-03-06T11:33:31.240Z,233.74
2023-03-06T11:34:31.458Z,235.58
2023-03-06T11:35:31.332Z,236.57
2023-03-06T11:36:31.201Z,227.68
2023-03-06T11:37:31.207Z,223.62
2023-03-06T11:38:31.229Z,151.39
2023-03-06T11:39:31.495Z,50.54
2023-03-06T11:40:31.256Z,129.36
2023-03-06T11:41:31.206Z,140.73
2023-03-06T11:42:31.258Z,190.40
2023-03-06T11:43:31.216Z,175.83
2023-03-06T11:44:31.503Z,163.35
2023-03-06T11:45:31.160Z,168.42
2023-03-06T11:46:31.222Z,124.65
2023-03-06T11:47:31.153Z,155.67
2023-03-06T11:48:31.150Z,150.20
2023-03-06T11:49:31.459Z,129.62
2023-03-06T11:50:31.165Z,125.95
2023-03-06T11:51:31.112Z,118.19
2023-03-06T11:52:31.148Z,108.07
2023-03-06T11:53:31.185Z,17.70
2023-03-06T11:54:31.528Z,9.31
2023-03-06T11:55:31.088Z,24.15
2023-03-06T11:56:31.779Z,60.07
2023-03-06T11:57:31.116Z,54.20
2023-03-06T11:58:31.061Z,14.26
2023-03-06T11:59:31.062Z,0.00
2023-03-06T12:00:31.072Z,0.00
2023-03-06T12:01:31.038Z,0.00
2023-03-06T12:02:31.077Z,33.23
2023-03-06T12:03:31.056Z,37.40
2023-03-06T12:04:31.019Z,0.00
2023-03-06T12:05:31.544Z,0.37
2023-03-06T12:06:31.000Z,31.74
2023-03-06T12:07:31.010Z,37.16
2023-03-06T12:08:31.014Z,68.74
2023-03-06T12:09:31.023Z,31.80
2023-03-06T12:10:31.054Z,3.70
2023-03-06T12:11:33.157Z,39.09
2023-03-06T12:12:30.989Z,57.07
2023-03-06T12:13:30.989Z,44.27
2023-03-06T12:14:31.066Z,19.68
2023-03-06T12:15:31.536Z,55.41
2023-03-06T12:16:31.277Z,76.46
2023-03-06T12:17:31.194Z,72.36
2023-03-06T12:18:31.236Z,33.80
2023-03-06T12:19:31.268Z,35.63
2023-03-06T12:20:31.505Z,41.48
2023-03-06T12:21:31.967Z,67.28
2023-03-06T12:22:31.424Z,78.54
2023-03-06T12:23:31.416Z,92.41
2023-03-06T12:24:31.368Z,77.49
2023-03-06T12:25:31.507Z,18.73
2023-03-06T12:26:31.449Z,48.37
2023-03-06T12:27:31.491Z,78.12
2023-03-06T12:28:31.584Z,105.11
2023-03-06T12:29:31.535Z,165.47
2023-03-06T12:30:31.996Z,175.78
2023-03-06T12:31:31.603Z,179.90
2023-03-06T12:32:31.632Z,176.14
2023-03-06T12:33:31.643Z,181.54
2023-03-06T12:34:31.680Z,181.73
2023-03-06T12:35:32.042Z,185.59
2023-03-06T12:36:31.837Z,189.29
2023-03-06T12:37:31.857Z,189.99
2023-03-06T12:38:31.881Z,192.87
2023-03-06T12:39:31.899Z,193.42
2023-03-06T12:40:32.024Z,193.68
2023-03-06T12:41:31.968Z,196.59
2023-03-06T12:42:31.968Z,195.72
2023-03-06T12:43:31.993Z,195.40
2023-03-06T12:44:32.024Z,197.44
2023-03-06T12:45:31.986Z,198.66
2023-03-06T12:46:32.003Z,200.11
2023-03-06T12:47:32.081Z,198.14
2023-03-06T12:48:32.185Z,200.07
2023-03-06T12:49:33.311Z,200.69
2023-03-06T12:50:32.316Z,201.51
2023-03-06T12:51:32.266Z,201.92
2023-03-06T12:52:32.306Z,201.09
2023-03-06T12:53:32.361Z,202.33
2023-03-06T12:54:32.274Z,202.13
2023-03-06T12:55:32.293Z,202.66
2023-03-06T12:56:32.243Z,202.22
2023-03-06T12:57:32.282Z,201.90
2023-03-06T12:58:32.274Z,203.37
2023-03-06T12:59:32.261Z,202.49
2023-03-06T13:00:32.321Z,202.85
2023-03-06T13:01:32.369Z,204.02
2023-03-06T13:02:32.356Z,203.37
2023-03-06T13:03:32.285Z,203.89
2023-03-06T13:04:32.343Z,202.60
2023-03-06T13:05:32.443Z,204.50
2023-03-06T13:06:36.455Z,204.89
2023-03-06T13:07:33.511Z,204.96
2023-03-06T13:08:32.521Z,205.15
2023-03-06T13:09:32.533Z,205.22
2023-03-06T13:10:32.483Z,204.67
2023-03-06T13:11:32.446Z,205.86
2023-03-06T13:12:32.460Z,205.53
2023-03-06T13:13:32.462Z,204.38
2023-03-06T13:14:34.294Z,205.25
2023-03-06T13:15:32.429Z,205.87
2023-03-06T13:16:32.494Z,205.67
2023-03-06T13:17:32.436Z,205.39
2023-03-06T13:18:32.431Z,203.98
2023-03-06T13:19:32.437Z,204.78
2023-03-06T13:20:34.869Z,203.69
2023-03-06T13:21:32.615Z,203.76
2023-03-06T13:22:32.694Z,203.97
2023-03-06T13:23:32.704Z,204.56
2023-03-06T13:24:32.789Z,204.86
2023-03-06T13:25:32.905Z,204.50
2023-03-06T13:26:32.903Z,204.92
2023-03-06T13:27:32.960Z,204.48
2023-03-06T13:28:33.007Z,203.33
2023-03-06T13:29:33.059Z,204.04
2023-03-06T13:30:33.145Z,204.28
2023-03-06T13:31:33.255Z,205.03
2023-03-06T13:32:33.322Z,204.02
2023-03-06T13:33:33.248Z,203.25
2023-03-06T13:34:33.320Z,204.52
2023-03-06T13:35:33.434Z,204.52
2023-03-06T13:36:33.424Z,204.26
2023-03-06T13:37:33.445Z,203.68
2023-03-06T13:38:33.500Z,203.49
2023-03-06T13:39:33.539Z,203.49
2023-03-06T13:40:33.683Z,203.25
2023-03-06T13:41:33.649Z,202.37
2023-03-06T13:42:33.690Z,202.68
2023-03-06T13:43:33.724Z,203.21
2023-03-06T13:44:33.829Z,203.40
2023-03-06T13:45:33.809Z,204.04
2023-03-06T13:46:33.856Z,203.05
2023-03-06T13:47:39.191Z,202.22
2023-03-06T13:48:44.235Z,202.34
2023-03-06T13:49:34.842Z,202.34
2023-03-06T13:50:33.911Z,202.59
2023-03-06T13:53:33.829Z,202.25
2023-03-06T13:54:33.824Z,202.58
2023-03-06T13:55:33.838Z,201.33
2023-03-06T13:56:33.811Z,202.16
2023-03-06T13:57:33.821Z,201.38
2023-03-06T13:58:33.797Z,201.76
2023-03-06T13:59:33.802Z,200.24
2023-03-06T14:00:33.807Z,200.27
2023-03-06T14:01:33.927Z,198.39
2023-03-06T14:02:33.814Z,197.10
2023-03-06T14:03:33.860Z,195.66
2023-03-06T14:04:33.736Z,193.61
2023-03-06T14:05:35.619Z,194.91
2023-03-06T14:06:33.763Z,192.08
2023-03-06T14:07:33.699Z,193.60
2023-03-06T14:08:33.750Z,203.09
2023-03-06T14:09:33.742Z,216.13
2023-03-06T14:10:33.720Z,224.65
2023-03-06T14:11:33.699Z,228.41
2023-03-06T14:12:33.714Z,229.22
2023-03-06T14:13:45.319Z,234.28
2023-03-06T14:14:34.739Z,234.80
2023-03-06T14:15:33.673Z,238.20
2023-03-06T14:16:48.634Z,240.64
2023-03-06T14:17:34.714Z,235.18
2023-03-06T14:18:33.662Z,237.55
2023-03-06T14:19:33.655Z,241.28
2023-03-06T14:20:33.679Z,250.72
2023-03-06T14:21:33.648Z,257.87
2023-03-06T14:22:33.643Z,252.83
2023-03-06T14:23:33.636Z,249.98
2023-03-06T14:24:33.594Z,246.93
2023-03-06T14:25:33.608Z,250.29
2023-03-06T14:26:33.600Z,245.40
2023-03-06T14:27:33.620Z,248.98
2023-03-06T14:28:33.612Z,246.63
2023-03-06T14:29:33.563Z,247.73
2023-03-06T14:30:33.651Z,244.81
2023-03-06T14:31:33.715Z,244.57
2023-03-06T14:32:33.602Z,247.70
2023-03-06T14:33:33.567Z,245.87
2023-03-06T14:34:33.605Z,245.42
2023-03-06T14:35:33.615Z,245.77
2023-03-06T14:36:33.597Z,244.44
2023-03-06T14:37:33.623Z,243.21
2023-03-06T14:38:33.622Z,243.62
2023-03-06T14:39:33.690Z,241.82
2023-03-06T14:40:33.842Z,240.81
2023-03-06T14:41:33.912Z,239.76
2023-03-06T14:42:33.910Z,238.16
2023-03-06T14:43:33.945Z,237.56
2023-03-06T14:44:33.963Z,236.25
2023-03-06T14:45:33.950Z,234.73
2023-03-06T14:46:33.999Z,232.47
2023-03-06T14:47:34.102Z,231.42
2023-03-06T14:48:34.119Z,230.58
2023-03-06T14:49:34.120Z,230.18
2023-03-06T14:50:34.123Z,228.88
2023-03-06T14:51:34.139Z,227.17
2023-03-06T14:52:34.141Z,227.15
2023-03-06T14:53:34.210Z,226.95
2023-03-06T14:54:34.228Z,223.56
2023-03-06T14:55:34.227Z,222.96
2023-03-06T14:56:34.223Z,222.24
2023-03-06T14:57:34.236Z,221.77
2023-03-06T14:58:34.228Z,221.03
2023-03-06T14:59:34.344Z,219.36
2023-03-06T15:00:34.373Z,219.25
2023-03-06T15:01:34.414Z,218.01
2023-03-06T15:02:34.410Z,217.98
2023-03-06T15:03:34.372Z,216.31
2023-03-06T15:04:34.381Z,216.42
2023-03-06T15:05:34.474Z,215.79
2023-03-06T15:06:34.547Z,214.91
2023-03-06T15:07:34.569Z,214.18
2023-03-06T15:08:34.559Z,213.35
2023-03-06T15:09:34.571Z,212.61
2023-03-06T15:10:34.671Z,212.09
2023-03-06T15:11:34.632Z,211.64
2023-03-06T15:12:34.690Z,211.80
2023-03-06T15:13:34.813Z,210.65
2023-03-06T15:14:34.846Z,209.70
2023-03-06T15:15:34.815Z,208.41
2023-03-06T15:16:34.844Z,209.44
2023-03-06T15:17:34.881Z,208.57
2023-03-06T15:18:34.885Z,207.95
2023-03-06T15:19:34.890Z,207.89
2023-03-06T15:20:34.949Z,207.68
2023-03-06T15:21:34.920Z,207.20
2023-03-06T15:22:34.964Z,206.36
2023-03-06T15:23:34.957Z,205.80
2023-03-06T15:24:34.970Z,205.55
2023-03-06T15:25:35.035Z,204.66
2023-03-06T15:26:35.009Z,204.06
2023-03-06T15:27:35.060Z,203.12
2023-03-06T15:28:35.052Z,203.22
2023-03-06T15:29:35.095Z,202.26
2023-03-06T15:30:35.640Z,202.41
2023-03-06T15:31:35.259Z,202.02
2023-03-06T15:32:35.316Z,201.58
2023-03-06T15:33:35.252Z,201.21
2023-03-06T15:34:35.325Z,200.71
2023-03-06T15:35:37.761Z,199.98
2023-03-06T15:36:35.256Z,199.81
2023-03-06T15:37:35.273Z,200.76
2023-03-06T15:38:35.265Z,199.08
2023-03-06T15:39:36.008Z,198.37
2023-03-06T15:40:35.240Z,198.76
2023-03-06T15:41:35.251Z,197.52
2023-03-06T15:42:35.215Z,197.46
2023-03-06T15:43:35.214Z,197.31
2023-03-06T15:44:35.198Z,196.63
2023-03-06T15:45:35.259Z,196.32
2023-03-06T15:46:35.222Z,195.68
2023-03-06T15:47:35.164Z,195.80
2023-03-06T15:48:35.214Z,195.81
2023-03-06T15:49:35.179Z,195.30
2023-03-06T15:50:35.162Z,195.06
2023-03-06T15:51:35.182Z,194.72
2023-03-06T15:52:35.169Z,194.71
2023-03-06T15:53:35.132Z,194.36
2023-03-06T15:54:35.142Z,193.81
2023-03-06T15:55:35.144Z,193.19
2023-03-06T15:56:35.156Z,193.48
2023-03-06T15:57:35.158Z,193.08
2023-03-06T15:58:35.116Z,192.79
2023-03-06T15:59:35.116Z,192.03
2023-03-06T16:00:35.081Z,191.91
2023-03-06T16:01:37.175Z,191.33
2023-03-06T16:02:35.091Z,192.43
2023-03-06T16:03:35.077Z,192.20
2023-03-06T16:04:35.151Z,191.40
2023-03-06T16:05:35.074Z,191.16
2023-03-06T16:06:35.066Z,191.20
2023-03-06T16:07:35.070Z,191.12
2023-03-06T16:08:35.050Z,190.83
2023-03-06T16:09:35.033Z,191.30
2023-03-06T16:10:35.043Z,190.56
2023-03-06T16:11:43.399Z,189.96
2023-03-06T16:12:36.090Z,190.06
2023-03-06T16:13:35.063Z,190.11
2023-03-06T16:14:35.078Z,190.17
2023-03-06T16:15:35.081Z,189.35
2023-03-06T16:16:35.145Z,189.62
2023-03-06T16:17:35.048Z,189.58
2023-03-06T16:18:35.045Z,188.73
2023-03-06T16:19:35.031Z,189.34
2023-03-06T16:20:35.003Z,189.23
2023-03-06T16:21:35.023Z,189.71
2023-03-06T16:22:35.022Z,188.46
2023-03-06T16:23:35.034Z,188.35
2023-03-06T16:24:34.989Z,187.71
2023-03-06T16:25:34.978Z,187.56
2023-03-06T16:26:34.952Z,187.78
2023-03-06T16:27:34.948Z,187.29
2023-03-06T16:28:34.968Z,187.82
2023-03-06T16:29:35.045Z,186.91
2023-03-06T16:30:35.021Z,186.54
2023-03-06T16:31:35.088Z,186.41